createdAt,value
2023-02-22T00:04:15.483Z,10.6
2023-02-22T00:09:15.477Z,10.6
2023-02-22T00:14:15.526Z,10.6
2023-02-22T00:19:15.501Z,10.6
2023-02-22T00:24:15.514Z,10.5
2023-02-22T00:29:15.623Z,10.4
2023-02-22T00:34:15.552Z,10.5
2023-02-22T00:39:15.815Z,10.4
2023-02-22T00:44:15.721Z,10.4
2023-02-22T00:49:15.746Z,10.4
2023-02-22T00:54:15.802Z,10.4
2023-02-22T00:59:15.793Z,10.3
2023-02-22T01:04:15.669Z,10.3
2023-02-22T01:09:15.828Z,10.3
2023-02-22T01:14:15.996Z,10.2
2023-02-22T01:19:16.068Z,10.2
2023-02-22T01:24:15.873Z,10.2
2023-02-22T01:29:15.868Z,10.2
2023-02-22T01:34:16.110Z,10.2
2023-02-22T01:39:16.289Z,10.2
2023-02-22T01:44:16.077Z,10.2
2023-02-22T01:49:16.071Z,10.2
2023-02-22T01:54:16.212Z,10.2
2023-02-22T01:59:16.211Z,10.2
2023-02-22T02:04:16.472Z,10.2
2023-02-22T02:09:16.522Z,10.2
2023-02-22T02:14:16.318Z,10.2
2023-02-22T02:19:16.478Z,10.1
2023-02-22T02:24:16.249Z,10.2
2023-02-22T02:29:16.307Z,10.2
2023-02-22T02:34:16.280Z,10.2
2023-02-22T02:39:16.413Z,10.2
2023-02-22T02:44:16.640Z,10.2
2023-02-22T02:49:16.490Z,10.2
2023-02-22T02:54:16.496Z,10.1
2023-02-22T02:59:16.521Z,10.1
2023-02-22T03:04:16.829Z,10.1
2023-02-22T03:09:17.101Z,10
2023-02-22T03:14:16.615Z,10
2023-02-22T03:19:16.694Z,10
2023-02-22T03:24:16.586Z,9.9
2023-02-22T03:29:16.843Z,9.8
2023-02-22T03:34:16.649Z,9.8
2023-02-22T03:39:16.600Z,9.8
2023-02-22T03:44:16.615Z,9.7
2023-02-22T03:49:16.580Z,9.7
2023-02-22T03:54:16.776Z,9.6
2023-02-22T03:59:16.605Z,9.6
2023-02-22T04:04:16.664Z,9.6
2023-02-22T04:09:16.648Z,9.5
2023-02-22T04:14:16.641Z,9.5
2023-02-22T04:19:16.599Z,9.5
2023-02-22T04:24:16.579Z,9.5
2023-02-22T04:29:16.651Z,9.5
2023-02-22T04:34:16.571Z,9.5
2023-02-22T04:39:16.692Z,9.4
2023-02-22T04:44:16.608Z,9.4
2023-02-22T04:49:16.576Z,9.4
2023-02-22T04:54:16.612Z,9.4
2023-02-22T04:59:16.585Z,9.4
2023-02-22T05:04:16.796Z,9.4
2023-02-22T05:09:16.640Z,9.4
2023-02-22T05:14:16.563Z,9.4
2023-02-22T05:19:16.601Z,9.4
2023-02-22T05:24:16.563Z,9.4
2023-02-22T05:29:16.550Z,9.3
2023-02-22T05:34:16.551Z,9.3
2023-02-22T05:39:16.589Z,9.3
2023-02-22T05:44:16.569Z,9.4
2023-02-22T05:49:16.608Z,9.3
2023-02-22T05:54:16.586Z,9.3
2023-02-22T05:59:16.623Z,9.3
2023-02-22T06:04:16.598Z,9.3
2023-02-22T06:09:16.607Z,9.4
2023-02-22T06:14:16.791Z,9.4
2023-02-22T06:19:16.680Z,9.5
2023-02-22T06:24:16.659Z,9.5
2023-02-22T06:29:16.645Z,9.5
2023-02-22T06:34:17.154Z,9.5
2023-02-22T06:39:16.713Z,9.6
2023-02-22T06:44:17.052Z,9.6
2023-02-22T06:49:16.888Z,9.7
2023-02-22T06:54:17.166Z,9.7
2023-02-22T06:59:17.274Z,9.7
2023-02-22T07:04:17.133Z,9.7
2023-02-22T07:09:16.963Z,9.7
2023-02-22T07:14:17.192Z,9.8
2023-02-22T07:19:17.005Z,9.8
2023-02-22T07:24:16.993Z,9.8
2023-02-22T07:29:16.973Z,9.8
2023-02-22T07:34:17.413Z,9.8
2023-02-22T07:39:17.329Z,9.9
2023-02-22T07:44:17.941Z,9.9
2023-02-22T07:49:17.239Z,9.9
2023-02-22T07:54:17.230Z,10
2023-02-22T07:59:17.256Z,10.1
2023-02-22T08:04:17.286Z,10.1
2023-02-22T08:10:59.042Z,10.1
2023-02-22T08:15:59.122Z,10.1
2023-02-22T08:20:59.021Z,10.2
2023-02-22T08:25:59.044Z,10.2
2023-02-22T08:30:58.921Z,10.2
2023-02-22T08:35:59.094Z,10.3
2023-02-22T08:40:58.936Z,10.3
2023-02-22T08:45:59.014Z,10.3
2023-02-22T08:50:58.947Z,10.4
2023-02-22T08:55:58.983Z,10.4
2023-02-22T09:00:58.946Z,10.5
2023-02-22T09:05:58.981Z,10.5
2023-02-22T09:10:58.926Z,10.5
2023-02-22T09:15:58.986Z,10.6
2023-02-22T09:20:58.947Z,10.6
2023-02-22T09:25:58.986Z,10.6
2023-02-22T09:30:58.950Z,10.6
2023-02-22T09:35:59.000Z,10.6
2023-02-22T09:40:59.104Z,10.7
2023-02-22T09:45:58.985Z,10.7
2023-02-22T09:50:58.911Z,10.7
2023-02-22T09:55:59.014Z,10.8
2023-02-22T10:00:58.955Z,10.8
2023-02-22T10:05:58.970Z,10.8
2023-02-22T10:10:58.958Z,10.9
2023-02-22T10:15:58.993Z,10.9
2023-02-22T10:20:58.955Z,10.9
2023-02-22T10:25:58.961Z,11
2023-02-22T10:30:59.103Z,11
2023-02-22T10:35:59.022Z,11.1
2023-02-22T10:40:59.115Z,11.1
2023-02-22T10:45:58.990Z,11.1
2023-02-22T10:50:58.981Z,11.1
2023-02-22T10:55:59.046Z,11.1
2023-02-22T11:00:58.985Z,11.2
2023-02-22T11:05:59.015Z,11.2
2023-02-22T11:10:58.994Z,11.3
2023-02-22T11:15:59.015Z,11.3
2023-02-22T11:20:58.960Z,11.4
2023-02-22T11:25:58.960Z,11.4
2023-02-22T11:30:59.117Z,11.5
2023-02-22T11:35:59.029Z,11.5
2023-02-22T11:40:59.093Z,11.5
2023-02-22T11:46:00.548Z,11.5
2023-02-22T11:50:58.986Z,11.6
2023-02-22T11:55:59.013Z,11.6
2023-02-22T12:00:58.959Z,11.6
2023-02-22T12:05:58.994Z,11.6
2023-02-22T12:10:59.092Z,11.7
2023-02-22T12:15:59.127Z,11.7
2023-02-22T12:20:58.969Z,11.7
2023-02-22T12:25:58.955Z,11.7
2023-02-22T12:30:59.013Z,11.7
2023-02-22T12:35:59.020Z,11.7
2023-02-22T12:40:59.152Z,11.7
2023-02-22T12:45:58.995Z,11.7
2023-02-22T12:50:58.957Z,11.7
2023-02-22T12:55:59.027Z,11.7
2023-02-22T13:00:58.964Z,11.7
2023-02-22T13:05:58.990Z,11.8
2023-02-22T13:10:58.965Z,11.8
2023-02-22T13:15:59.237Z,11.8
2023-02-22T13:20:58.971Z,11.9
2023-02-22T13:25:58.969Z,11.9
2023-02-22T13:30:59.019Z,11.8
2023-02-22T13:35:59.024Z,11.8
2023-02-22T13:40:59.008Z,11.9
2023-02-22T13:45:58.977Z,11.9
2023-02-22T13:50:58.955Z,11.9
2023-02-22T13:55:59.008Z,11.9
2023-02-22T14:00:58.972Z,11.9
2023-02-22T14:05:59.001Z,11.9
2023-02-22T14:10:58.962Z,11.9
2023-02-22T14:15:59.050Z,11.9
2023-02-22T14:20:58.951Z,11.9
2023-02-22T14:25:58.990Z,12
2023-02-22T14:30:59.000Z,12
2023-02-22T14:35:59.025Z,12
2023-02-22T14:40:58.972Z,12
2023-02-22T14:45:59.218Z,12
2023-02-22T14:51:00.640Z,12
2023-02-22T14:55:59.033Z,12
2023-02-22T15:00:58.974Z,12
2023-02-22T15:05:59.004Z,12
2023-02-22T15:10:58.962Z,12
2023-02-22T15:16:01.329Z,12
2023-02-22T15:20:58.994Z,12
2023-02-22T15:25:58.983Z,12
2023-02-22T15:30:58.960Z,11.8
2023-02-22T15:35:59.030Z,11.7
2023-02-22T15:40:58.973Z,11.7
2023-02-22T15:45:59.079Z,11.7
2023-02-22T15:50:58.967Z,11.7
2023-02-22T15:55:59.024Z,11.6
2023-02-22T16:00:59.007Z,11.6
2023-02-22T16:05:58.991Z,11.6
2023-02-22T16:10:58.990Z,11.6
2023-02-22T16:15:59.030Z,11.6
2023-02-22T16:20:58.981Z,11.6
2023-02-22T16:25:58.978Z,11.6
2023-02-22T16:30:59.064Z,11.6
2023-02-22T16:35:59.161Z,11.6
2023-02-22T16:40:58.982Z,11.6
2023-02-22T16:45:59.027Z,11.4
2023-02-22T16:50:58.976Z,11.4
2023-02-22T16:55:59.006Z,11.4
2023-02-22T17:00:58.990Z,11.3
2023-02-22T17:05:58.997Z,11.3
2023-02-22T17:10:58.968Z,11.3
2023-02-22T17:15:59.015Z,11.2
2023-02-22T17:20:58.950Z,11.2
2023-02-22T17:25:58.982Z,11.1
2023-02-22T17:30:58.964Z,11.1
2023-02-22T17:35:59.020Z,11.1
2023-02-22T17:40:58.993Z,11
2023-02-22T17:45:59.011Z,10.9
2023-02-22T17:50:58.993Z,10.9
2023-02-22T17:55:58.980Z,10.9
2023-02-22T18:00:59.298Z,10.8
2023-02-22T18:05:58.996Z,10.8
2023-02-22T18:10:59.005Z,10.7
2023-02-22T18:15:59.050Z,10.7
2023-02-22T18:20:59.005Z,10.7
2023-02-22T18:26:09.968Z,10.7
2023-02-22T18:30:58.984Z,10.7
2023-02-22T18:35:58.994Z,10.6
2023-02-22T18:40:59.030Z,10.5
2023-02-22T18:45:58.960Z,10.5
2023-02-22T18:50:58.966Z,10.4
2023-02-22T18:55:59.100Z,10.4
2023-02-22T19:00:58.943Z,10.4
2023-02-22T19:05:58.971Z,10.3
2023-02-22T19:10:59.123Z,10.3
2023-02-22T19:15:59.034Z,10.3
2023-02-22T19:20:58.961Z,10.2
2023-02-22T19:25:59.108Z,10.2
2023-02-22T19:30:59.240Z,10.1
2023-02-22T19:35:59.120Z,10.1
2023-02-22T19:40:58.974Z,10.1
2023-02-22T19:45:59.095Z,10
2023-02-22T19:50:59.023Z,10
2023-02-22T19:55:59.004Z,10
2023-02-22T20:00:59.045Z,9.9
2023-02-22T20:05:58.991Z,9.9
2023-02-22T20:10:59.059Z,9.8
2023-02-22T20:15:59.138Z,9.7
2023-02-22T20:20:59.063Z,9.7
2023-02-22T20:25:59.104Z,9.6
2023-02-22T20:30:59.011Z,9.5
2023-02-22T20:35:59.143Z,9.5
2023-02-22T20:40:59.015Z,9.5
2023-02-22T20:45:59.082Z,9.4
2023-02-22T20:50:58.985Z,9.4
2023-02-22T20:55:59.053Z,9.3
2023-02-22T21:00:58.999Z,9.3
2023-02-22T21:05:58.997Z,9.3
2023-02-22T21:10:58.971Z,9.3
2023-02-22T21:15:59.030Z,9.2
2023-02-22T21:25:58.983Z,9
2023-02-22T21:30:59.067Z,8.9
2023-02-22T21:35:59.013Z,8.9
2023-02-22T21:40:58.976Z,8.9
2023-02-22T21:45:59.138Z,8.8
2023-02-22T21:50:59.015Z,8.9
2023-02-22T21:55:59.174Z,8.8
2023-02-22T22:00:59.055Z,8.7
2023-02-22T22:05:59.203Z,8.8
2023-02-22T22:10:59.021Z,8.7
2023-02-22T22:15:59.078Z,8.6
2023-02-22T22:20:59.014Z,8.6
2023-02-22T22:25:59.037Z,8.5
2023-02-22T22:30:59.101Z,8.5
2023-02-22T22:35:59.046Z,8.4
2023-02-22T22:40:58.994Z,8.4
2023-02-22T22:45:59.037Z,8.4
2023-02-22T22:50:59.014Z,8.3
2023-02-22T22:55:59.048Z,8.2
2023-02-22T23:00:59.053Z,8.2
2023-02-22T23:05:59.036Z,8.2
2023-02-22T23:10:59.025Z,8.2
2023-02-22T23:15:59.073Z,8.1
2023-02-22T23:20:59.029Z,8.1
2023-02-22T23:25:59.048Z,8.1
2023-02-22T23:30:59.079Z,8
2023-02-22T23:35:59.088Z,8
2023-02-22T23:40:59.025Z,7.9
2023-02-22T23:45:59.046Z,8
2023-02-22T23:50:59.056Z,8
2023-02-22T23:55:59.056Z,7.9
